Villa Nueva, Texas
Current Conditions -  °F | °C
As of 4:53 PM on Thursday 20 Nov 2014 (Local Time) from KBRO Reporting Station
Overcast Overcast  
Wind Chill: 71°   Ceiling: 2700
Heat Index: 71°   Visibility: 10mi
Dew Point: 67°   Wind: 10mph
Humidity: 87%   Direction: 150°SSE
Pressure: 30.02"   Gusts: NA
Location:  26.0002°N, 97.5729°W
Report Text: KBRO 202253Z AUTO 15009KT 10SM FEW020 BKN027 OVC035 22/19 A3002 RMK AO2 SLP164 T02170194 TSNO
Loading
Personal Weather Stations






























Interactive Weather Map New forecast layout! Learn more

10-Day Weather Forecast

Advertisements
Track Severe Weather on mobile